createdAt,value
2023-01-29T00:01:44.244Z,-0.36
2023-01-29T00:04:30.143Z,-0.38
2023-01-29T00:07:06.459Z,-0.37
2023-01-29T00:09:44.574Z,-0.40
2023-01-29T00:12:42.761Z,-0.33
2023-01-29T00:15:27.714Z,-0.40
2023-01-29T00:18:00.131Z,-0.36
2023-01-29T00:20:38.505Z,-0.41
2023-01-29T00:23:32.867Z,-0.42
2023-01-29T00:26:15.635Z,-0.46
2023-01-29T00:29:00.044Z,-0.42
2023-01-29T00:31:46.014Z,-0.44
2023-01-29T00:34:29.631Z,-0.46
2023-01-29T00:37:22.157Z,-0.46
2023-01-29T00:43:10.076Z,-0.44
2023-01-29T00:45:44.295Z,-0.38
2023-01-29T00:48:31.470Z,-0.40
2023-01-29T00:51:13.955Z,-0.48
2023-01-29T00:53:54.648Z,-0.57
2023-01-29T00:56:32.411Z,-0.59
2023-01-29T00:59:03.844Z,-0.68
2023-01-29T01:01:46.519Z,-0.71
2023-01-29T01:04:18.313Z,-0.70
2023-01-29T01:06:48.426Z,-0.72
2023-01-29T01:09:34.486Z,-0.71
2023-01-29T01:12:14.397Z,-0.81
2023-01-29T01:15:10.886Z,-0.74
2023-01-29T01:18:04.752Z,-0.74
2023-01-29T01:20:58.831Z,-0.81
2023-01-29T01:23:51.651Z,-0.73
2023-01-29T01:26:43.309Z,-0.71
2023-01-29T01:29:26.253Z,-0.73
2023-01-29T01:32:03.785Z,-0.64
2023-01-29T01:34:50.947Z,-0.65
2023-01-29T01:37:47.749Z,-0.69
2023-01-29T01:40:53.536Z,-0.68
2023-01-29T01:43:42.598Z,-0.65
2023-01-29T01:46:20.385Z,-0.60
2023-01-29T01:48:58.458Z,-0.61
2023-01-29T01:51:41.396Z,-0.56
2023-01-29T01:54:21.777Z,-0.60
2023-01-29T01:57:06.313Z,-0.53
2023-01-29T01:59:45.381Z,-0.57
2023-01-29T02:02:31.696Z,-0.50
2023-01-29T02:05:16.461Z,-0.56
2023-01-29T02:08:06.782Z,-0.56
2023-01-29T02:10:45.368Z,-0.51
2023-01-29T02:13:18.818Z,-0.55
2023-01-29T02:15:49.961Z,-0.54
2023-01-29T02:18:27.372Z,-0.53
2023-01-29T02:21:25.686Z,-0.52
2023-01-29T02:24:42.556Z,-0.56
2023-01-29T02:27:32.332Z,-0.54
2023-01-29T02:30:20.792Z,-0.55
2023-01-29T02:33:07.665Z,-0.53
2023-01-29T02:36:04.625Z,-0.55
2023-01-29T02:39:16.362Z,-0.56
2023-01-29T02:42:06.107Z,-0.59
2023-01-29T02:44:41.654Z,-0.57
2023-01-29T02:47:26.638Z,-0.59
2023-01-29T02:50:20.780Z,-0.56
2023-01-29T02:53:20.154Z,-0.57
2023-01-29T02:56:16.621Z,-0.62
2023-01-29T02:59:12.089Z,-0.57
2023-01-29T03:01:58.283Z,-0.57
2023-01-29T03:04:56.170Z,-0.56
2023-01-29T03:07:53.255Z,-0.56
2023-01-29T03:10:44.457Z,-0.58
2023-01-29T03:13:51.027Z,-0.64
2023-01-29T03:16:39.399Z,-0.54
2023-01-29T03:19:27.466Z,-0.56
2023-01-29T03:22:24.404Z,-0.55
2023-01-29T03:25:31.992Z,-0.57
2023-01-29T03:28:46.876Z,-0.57
2023-01-29T03:31:44.073Z,-0.59
2023-01-29T03:41:00.527Z,-0.52
2023-01-29T03:44:20.530Z,-0.57
2023-01-29T03:47:14.191Z,-0.60
2023-01-29T03:50:08.126Z,-0.62
2023-01-29T03:53:08.992Z,-0.63
2023-01-29T03:56:04.319Z,-0.67
2023-01-29T03:59:18.220Z,-0.62
2023-01-29T04:02:35.068Z,-0.69
2023-01-29T04:05:30.279Z,-0.67
2023-01-29T04:08:41.612Z,-0.66
2023-01-29T04:11:34.076Z,-0.72
2023-01-29T04:14:27.645Z,-0.70
2023-01-29T04:17:21.085Z,-0.69
2023-01-29T04:20:38.428Z,-0.69
2023-01-29T04:23:34.743Z,-0.70
2023-01-29T04:26:32.041Z,-0.70
2023-01-29T04:29:42.587Z,-0.69
2023-01-29T04:32:51.909Z,-0.66
2023-01-29T04:39:30.637Z,-0.70
2023-01-29T04:42:39.132Z,-0.72
2023-01-29T04:45:28.755Z,-0.73
2023-01-29T04:48:25.594Z,-0.66
2023-01-29T04:51:26.129Z,-0.65
2023-01-29T04:54:21.761Z,-0.66
2023-01-29T05:00:33.968Z,-0.69
2023-01-29T05:03:29.011Z,-0.64
2023-01-29T05:06:35.372Z,-0.67
2023-01-29T05:09:59.818Z,-0.63
2023-01-29T05:12:53.882Z,-0.64
2023-01-29T05:16:00.238Z,-0.64
2023-01-29T05:19:03.419Z,-0.65
2023-01-29T05:21:55.111Z,-0.64
2023-01-29T05:28:08.207Z,-0.62
2023-01-29T05:31:11.696Z,-0.68
2023-01-29T05:36:57.874Z,-0.63
2023-01-29T05:39:44.768Z,-0.68
2023-01-29T05:42:16.816Z,-0.67
2023-01-29T05:44:47.146Z,-0.64
2023-01-29T05:47:17.481Z,-0.57
2023-01-29T05:49:47.614Z,-0.57
2023-01-29T05:52:17.775Z,-0.61
2023-01-29T05:54:51.894Z,-0.55
2023-01-29T05:57:22.312Z,-0.61
2023-01-29T05:59:52.419Z,-0.55
2023-01-29T06:02:22.579Z,-0.59
2023-01-29T06:04:54.447Z,-0.58
2023-01-29T06:07:24.660Z,-0.57
2023-01-29T06:09:57.454Z,-0.64
2023-01-29T06:12:27.609Z,-0.61
2023-01-29T06:14:57.759Z,-0.62
2023-01-29T06:17:27.941Z,-0.63
2023-01-29T06:20:06.745Z,-0.58
2023-01-29T06:22:37.238Z,-0.52
2023-01-29T06:25:12.320Z,-0.55
2023-01-29T06:27:42.919Z,-0.55
2023-01-29T06:30:14.741Z,-0.59
2023-01-29T06:32:45.142Z,-0.60
2023-01-29T06:35:21.133Z,-0.59
2023-01-29T06:37:51.264Z,-0.56
2023-01-29T06:40:24.127Z,-0.56
2023-01-29T06:42:55.593Z,-0.57
2023-01-29T06:45:33.168Z,-0.54
2023-01-29T06:48:04.795Z,-0.66
2023-01-29T06:50:34.925Z,-0.59
2023-01-29T06:53:05.056Z,-0.58
2023-01-29T06:55:40.598Z,-0.57
2023-01-29T06:58:16.383Z,-0.55
2023-01-29T07:00:48.487Z,-0.54
2023-01-29T07:03:19.555Z,-0.56
2023-01-29T07:05:59.824Z,-0.55
2023-01-29T07:08:30.221Z,-0.55
2023-01-29T07:11:05.876Z,-0.48
2023-01-29T07:13:36.214Z,-0.51
2023-01-29T07:16:12.713Z,-0.51
2023-01-29T07:18:42.862Z,-0.50
2023-01-29T07:21:13.526Z,-0.51
2023-01-29T07:23:45.219Z,-0.44
2023-01-29T07:26:18.201Z,-0.52
2023-01-29T07:28:48.333Z,-0.60
2023-01-29T07:31:18.875Z,-0.55
2023-01-29T07:33:54.767Z,-0.51
2023-01-29T07:36:35.926Z,-0.37
2023-01-29T07:39:24.012Z,-0.45
2023-01-29T07:42:04.145Z,-0.52
2023-01-29T07:44:35.084Z,-0.56
2023-01-29T07:47:09.671Z,-0.55
2023-01-29T07:49:47.290Z,-0.45
2023-01-29T07:52:22.548Z,-0.43
2023-01-29T07:54:53.751Z,-0.43
2023-01-29T07:57:28.097Z,-0.34
2023-01-29T07:59:59.225Z,-0.47
2023-01-29T08:02:32.565Z,-0.43
2023-01-29T08:05:05.232Z,-0.37
2023-01-29T08:07:35.449Z,-0.33
2023-01-29T08:10:08.278Z,-0.24
2023-01-29T08:12:41.155Z,-0.34
2023-01-29T08:15:15.106Z,-0.28
2023-01-29T08:17:57.497Z,-0.19
2023-01-29T08:20:32.205Z,-0.22
2023-01-29T08:23:04.678Z,-0.23
2023-01-29T08:25:48.744Z,-0.23
2023-01-29T08:28:22.013Z,-0.22
2023-01-29T08:30:58.708Z,-0.39
2023-01-29T08:33:38.628Z,-0.25
2023-01-29T08:36:13.373Z,-0.24
2023-01-29T08:38:43.545Z,-0.18
2023-01-29T08:41:13.858Z,-0.09
2023-01-29T08:43:49.675Z,-0.01
2023-01-29T08:46:19.922Z,-0.05
2023-01-29T08:48:50.094Z,-0.18
2023-01-29T08:51:22.225Z,-0.25
2023-01-29T08:53:52.402Z,-0.22
2023-01-29T08:56:22.457Z,-0.22
2023-01-29T08:58:55.351Z,-0.03
2023-01-29T09:01:25.611Z,-0.05
2023-01-29T09:03:55.990Z,-0.13
2023-01-29T09:06:37.229Z,-0.05
2023-01-29T09:09:13.665Z,-0.15
2023-01-29T09:11:46.919Z,-0.27
2023-01-29T09:14:21.617Z,-0.18
2023-01-29T09:16:57.962Z,-0.20
2023-01-29T09:19:28.149Z,-0.19
2023-01-29T09:21:58.302Z,-0.16
2023-01-29T09:24:28.522Z,-0.11
2023-01-29T09:26:58.826Z,-0.13
2023-01-29T09:29:32.656Z,-0.09
2023-01-29T09:32:05.494Z,-0.23
2023-01-29T09:34:46.004Z,-0.08
2023-01-29T09:37:17.795Z,-0.02
2023-01-29T09:39:49.835Z,-0.05
2023-01-29T09:42:28.393Z,0.08
2023-01-29T09:45:08.870Z,0.16
2023-01-29T09:47:40.145Z,0.00
2023-01-29T09:50:19.988Z,-0.10
2023-01-29T09:53:04.781Z,0.03
2023-01-29T09:55:45.286Z,-0.05
2023-01-29T09:58:29.899Z,-0.12
2023-01-29T10:15:50.703Z,-0.18
2023-01-29T10:18:47.947Z,-0.10
2023-01-29T10:21:31.715Z,-0.23
2023-01-29T10:24:10.194Z,-0.11
2023-01-29T10:26:43.829Z,-0.24
2023-01-29T10:29:22.242Z,-0.18
2023-01-29T10:31:58.050Z,-0.27
2023-01-29T10:34:34.918Z,-0.41
2023-01-29T10:37:16.365Z,-0.46
2023-01-29T10:39:48.478Z,-0.43
2023-01-29T10:42:31.770Z,-0.35
2023-01-29T10:45:24.430Z,-0.30
2023-01-29T10:48:20.576Z,-0.45
2023-01-29T10:50:55.770Z,-0.34
2023-01-29T10:53:35.224Z,-0.31
2023-01-29T10:56:23.211Z,-0.33
2023-01-29T10:59:02.338Z,-0.22
2023-01-29T11:01:34.908Z,-0.36
2023-01-29T11:04:09.773Z,-0.22
2023-01-29T11:06:40.975Z,-0.16
2023-01-29T11:09:25.023Z,-0.01
2023-01-29T11:12:00.964Z,-0.09
2023-01-29T11:14:42.677Z,-0.27
2023-01-29T11:17:20.071Z,-0.24
2023-01-29T11:19:55.784Z,-0.12
2023-01-29T11:22:32.285Z,-0.10
2023-01-29T11:25:21.382Z,-0.12
2023-01-29T11:27:55.324Z,-0.16
2023-01-29T11:30:32.397Z,-0.22
2023-01-29T11:33:11.103Z,-0.22
2023-01-29T11:35:43.455Z,-0.26
2023-01-29T11:38:25.971Z,-0.26
2023-01-29T11:40:57.215Z,-0.22
2023-01-29T11:43:37.956Z,-0.16
2023-01-29T11:46:18.405Z,-0.11
2023-01-29T11:48:59.399Z,0.04
2023-01-29T11:51:43.972Z,-0.14
2023-01-29T11:54:20.340Z,-0.16
2023-01-29T11:56:51.941Z,-0.06
2023-01-29T11:59:38.336Z,-0.04
2023-01-29T12:02:26.807Z,-0.04
2023-01-29T12:05:00.145Z,-0.06
2023-01-29T12:07:32.770Z,-0.04
2023-01-29T12:10:03.906Z,0.22
2023-01-29T12:12:39.429Z,0.01
2023-01-29T12:15:25.382Z,0.21
2023-01-29T12:18:04.223Z,0.33
2023-01-29T12:20:42.527Z,0.05
2023-01-29T12:23:31.031Z,0.13
2023-01-29T12:26:07.553Z,0.51
2023-01-29T12:28:51.958Z,0.42
2023-01-29T12:31:39.663Z,0.16
2023-01-29T12:34:20.208Z,0.08
2023-01-29T12:36:58.223Z,-0.02
2023-01-29T12:39:29.087Z,-0.07
2023-01-29T12:42:04.659Z,0.04
2023-01-29T12:44:45.437Z,-0.03
2023-01-29T12:47:22.586Z,-0.11
2023-01-29T12:50:00.144Z,-0.34
2023-01-29T12:52:40.950Z,-0.27
2023-01-29T12:55:15.624Z,-0.44
2023-01-29T12:57:50.202Z,-0.42
2023-01-29T13:00:27.649Z,-0.19
2023-01-29T13:03:03.562Z,-0.16
2023-01-29T13:05:44.449Z,-0.05
2023-01-29T13:08:21.874Z,-0.06
2023-01-29T13:10:56.809Z,-0.15
2023-01-29T13:13:33.794Z,-0.06
2023-01-29T13:16:06.824Z,-0.02
2023-01-29T13:18:44.438Z,-0.02
2023-01-29T13:21:23.000Z,0.17
2023-01-29T13:23:58.971Z,0.15
2023-01-29T13:26:32.946Z,0.10
2023-01-29T13:29:05.736Z,0.23
2023-01-29T13:31:46.409Z,0.21
2023-01-29T13:34:20.016Z,0.02
2023-01-29T13:36:56.122Z,0.05
2023-01-29T13:39:33.060Z,0.03
2023-01-29T13:42:05.777Z,0.11
2023-01-29T13:44:41.546Z,0.13
2023-01-29T13:47:14.485Z,-0.18
2023-01-29T13:49:48.604Z,0.04
2023-01-29T13:52:29.075Z,0.04
2023-01-29T13:55:02.079Z,0.23
2023-01-29T13:57:55.381Z,0.55
2023-01-29T14:00:59.440Z,0.56
2023-01-29T14:04:06.787Z,0.75
2023-01-29T14:06:51.833Z,0.67
2023-01-29T14:09:57.899Z,0.39
2023-01-29T14:12:52.640Z,0.03
2023-01-29T14:15:31.180Z,-0.04
2023-01-29T14:18:06.201Z,-0.05
2023-01-29T14:20:48.557Z,0.01
2023-01-29T14:23:27.182Z,0.10
2023-01-29T14:25:57.813Z,-0.13
2023-01-29T14:28:33.770Z,-0.14
2023-01-29T14:31:04.495Z,-0.26
2023-01-29T14:33:42.482Z,-0.32
2023-01-29T14:36:16.483Z,-0.24
2023-01-29T14:38:53.456Z,-0.12
2023-01-29T14:41:29.158Z,-0.05
2023-01-29T14:44:32.026Z,-0.14
2023-01-29T14:47:05.001Z,-0.19
2023-01-29T14:49:54.324Z,-0.30
2023-01-29T14:52:29.481Z,-0.36
2023-01-29T14:55:03.579Z,-0.52
2023-01-29T14:57:34.747Z,-0.57
2023-01-29T15:00:11.974Z,-0.68
2023-01-29T15:02:47.585Z,-0.76
2023-01-29T15:05:22.686Z,-0.88
2023-01-29T15:07:58.639Z,-0.88
2023-01-29T15:10:39.028Z,-1.03
2023-01-29T15:13:21.436Z,-1.04
2023-01-29T15:15:57.527Z,-1.12
2023-01-29T15:18:39.953Z,-1.10
2023-01-29T15:21:15.628Z,-1.12
2023-01-29T15:23:47.977Z,-1.22
2023-01-29T15:26:24.774Z,-1.20
2023-01-29T15:29:04.238Z,-1.30
2023-01-29T15:31:35.896Z,-1.36
2023-01-29T15:34:10.642Z,-1.37
2023-01-29T15:36:41.051Z,-1.45
2023-01-29T15:39:19.462Z,-1.41
2023-01-29T15:41:50.963Z,-1.38
2023-01-29T15:44:23.420Z,-1.53
2023-01-29T15:46:56.692Z,-1.48
2023-01-29T15:49:37.058Z,-1.54
2023-01-29T15:52:10.912Z,-1.65
2023-01-29T15:54:41.807Z,-1.58
2023-01-29T15:57:22.872Z,-1.58
2023-01-29T15:59:55.358Z,-1.64
2023-01-29T16:02:39.365Z,-1.69
2023-01-29T16:05:15.300Z,-1.69
2023-01-29T16:07:46.391Z,-1.65
2023-01-29T16:10:22.436Z,-1.66
2023-01-29T16:12:54.248Z,-1.68
2023-01-29T16:15:34.376Z,-1.63
2023-01-29T16:18:07.469Z,-1.66
2023-01-29T16:20:46.679Z,-1.63
2023-01-29T16:23:21.771Z,-1.57
2023-01-29T16:25:52.957Z,-1.57
2023-01-29T16:28:23.336Z,-1.51
2023-01-29T16:31:02.882Z,-1.53
2023-01-29T16:33:38.511Z,-1.68
2023-01-29T16:36:19.968Z,-1.64
2023-01-29T16:38:54.364Z,-1.75
2023-01-29T16:41:34.005Z,-1.83
2023-01-29T16:44:06.867Z,-1.80
2023-01-29T16:46:39.406Z,-1.79
2023-01-29T16:49:44.409Z,-1.83
2023-01-29T16:52:27.377Z,-1.73
2023-01-29T16:55:03.600Z,-1.71
2023-01-29T16:57:37.067Z,-1.69
2023-01-29T17:00:11.453Z,-1.70
2023-01-29T17:02:42.996Z,-1.72
2023-01-29T17:05:25.426Z,-1.59
2023-01-29T17:08:00.373Z,-1.60
2023-01-29T17:10:32.723Z,-1.47
2023-01-29T17:13:07.010Z,-1.53
2023-01-29T17:15:46.296Z,-1.56
2023-01-29T17:18:21.605Z,-1.57
2023-01-29T17:20:53.152Z,-1.56
2023-01-29T17:23:26.169Z,-1.49
2023-01-29T17:25:56.822Z,-1.51
2023-01-29T17:28:27.033Z,-1.56
2023-01-29T17:31:06.166Z,-1.48
2023-01-29T17:33:38.546Z,-1.46
2023-01-29T17:36:12.808Z,-1.45
2023-01-29T17:38:45.873Z,-1.40
2023-01-29T17:41:22.758Z,-1.37
2023-01-29T17:43:52.866Z,-1.38
2023-01-29T17:46:24.516Z,-1.43
2023-01-29T17:48:54.952Z,-1.46
2023-01-29T17:51:25.165Z,-1.46
2023-01-29T17:53:57.911Z,-1.42
2023-01-29T17:56:30.671Z,-1.40
2023-01-29T17:59:01.081Z,-1.35
2023-01-29T18:01:31.313Z,-1.34
2023-01-29T18:04:01.584Z,-1.33
2023-01-29T18:06:32.824Z,-1.34
2023-01-29T18:09:06.478Z,-1.40
2023-01-29T18:11:37.346Z,-1.33
2023-01-29T18:14:13.910Z,-1.37
2023-01-29T18:16:46.749Z,-1.34
2023-01-29T18:19:20.149Z,-1.37
2023-01-29T18:21:50.331Z,-1.45
2023-01-29T18:24:23.728Z,-1.47
2023-01-29T18:26:54.064Z,-1.44
2023-01-29T18:29:29.574Z,-1.49
2023-01-29T18:31:59.789Z,-1.46
2023-01-29T18:34:29.950Z,-1.54
2023-01-29T18:37:00.442Z,-1.54
2023-01-29T18:39:33.175Z,-1.49
2023-01-29T18:42:03.255Z,-1.50
2023-01-29T18:44:33.428Z,-1.62
2023-01-29T18:47:05.513Z,-1.60
2023-01-29T18:49:38.885Z,-1.59
2023-01-29T18:52:09.457Z,-1.71
2023-01-29T18:54:42.700Z,-1.71
2023-01-29T18:57:16.659Z,-1.75
2023-01-29T19:00:04.692Z,-1.78
2023-01-29T19:02:34.843Z,-1.73
2023-01-29T19:05:06.980Z,-1.70
2023-01-29T19:07:37.142Z,-1.68
2023-01-29T19:10:14.186Z,-1.66
2023-01-29T19:12:44.299Z,-1.61
2023-01-29T19:15:21.618Z,-1.56
2023-01-29T19:17:52.091Z,-1.54
2023-01-29T19:20:22.774Z,-1.55
2023-01-29T19:22:54.004Z,-1.51
2023-01-29T19:25:26.951Z,-1.47
2023-01-29T19:27:59.728Z,-1.45
2023-01-29T19:30:35.959Z,-1.45
2023-01-29T19:33:10.771Z,-1.41
2023-01-29T19:35:54.372Z,-1.36
2023-01-29T19:38:26.140Z,-1.42
2023-01-29T19:41:02.660Z,-1.41
2023-01-29T19:43:33.513Z,-1.33
2023-01-29T19:46:04.773Z,-1.40
2023-01-29T19:48:34.888Z,-1.31
2023-01-29T19:51:08.543Z,-1.36
2023-01-29T19:53:39.388Z,-1.38
2023-01-29T19:56:17.296Z,-1.38
2023-01-29T19:58:49.800Z,-1.36
2023-01-29T20:01:24.828Z,-1.42
2023-01-29T20:03:59.913Z,-1.37
2023-01-29T20:06:31.932Z,-1.37
2023-01-29T20:09:06.193Z,-1.44
2023-01-29T20:11:39.189Z,-1.47
2023-01-29T20:14:11.119Z,-1.53
2023-01-29T20:16:41.413Z,-1.54
2023-01-29T20:19:14.050Z,-1.66
2023-01-29T20:21:45.673Z,-1.62
2023-01-29T20:24:16.589Z,-1.67
2023-01-29T20:26:50.419Z,-1.65
2023-01-29T20:29:20.919Z,-1.69
2023-01-29T20:31:51.068Z,-1.75
2023-01-29T20:34:21.247Z,-1.72
2023-01-29T20:36:51.307Z,-1.82
2023-01-29T20:39:21.591Z,-1.77
2023-01-29T20:41:55.361Z,-1.73
2023-01-29T20:44:25.205Z,-1.80
2023-01-29T20:46:55.284Z,-1.84
2023-01-29T20:49:25.424Z,-1.89
2023-01-29T20:51:58.186Z,-1.91
2023-01-29T20:54:30.128Z,-1.85
2023-01-29T20:57:03.248Z,-1.88
2023-01-29T20:59:33.330Z,-1.89
2023-01-29T21:02:03.564Z,-1.99
2023-01-29T21:04:34.184Z,-1.90
2023-01-29T21:07:04.330Z,-1.91
2023-01-29T21:09:34.436Z,-1.94
2023-01-29T21:12:08.746Z,-1.99
2023-01-29T21:14:39.055Z,-1.97
2023-01-29T21:17:09.326Z,-2.03
2023-01-29T21:19:39.440Z,-1.96
2023-01-29T21:22:09.567Z,-1.96
2023-01-29T21:24:39.731Z,-2.04
2023-01-29T21:27:13.577Z,-2.10
2023-01-29T21:29:43.335Z,-2.11
2023-01-29T21:32:13.404Z,-2.13
2023-01-29T21:34:44.168Z,-2.11
2023-01-29T21:37:14.335Z,-2.16
2023-01-29T21:39:47.868Z,-2.21
2023-01-29T21:42:32.925Z,-2.15
2023-01-29T21:45:03.025Z,-2.20
2023-01-29T21:47:33.187Z,-2.18
2023-01-29T21:50:03.276Z,-2.24
2023-01-29T21:52:33.414Z,-2.24
2023-01-29T21:55:03.512Z,-2.15
2023-01-29T21:57:36.531Z,-2.21
2023-01-29T22:00:07.647Z,-2.21
2023-01-29T22:02:37.920Z,-2.16
2023-01-29T22:05:18.772Z,-2.26
2023-01-29T22:07:50.523Z,-2.24
2023-01-29T22:10:21.901Z,-2.28
2023-01-29T22:12:54.816Z,-2.29
2023-01-29T22:15:25.495Z,-2.32
2023-01-29T22:17:55.741Z,-2.33
2023-01-29T22:20:30.350Z,-2.38
2023-01-29T22:23:01.757Z,-2.33
2023-01-29T22:25:32.321Z,-2.41
2023-01-29T22:28:05.203Z,-2.43
2023-01-29T22:30:35.887Z,-2.45
2023-01-29T22:33:06.179Z,-2.52
2023-01-29T22:35:36.456Z,-2.52
2023-01-29T22:38:07.923Z,-2.55
2023-01-29T22:40:37.995Z,-2.58
2023-01-29T22:43:10.685Z,-2.64
2023-01-29T22:45:42.550Z,-2.62
2023-01-29T22:48:12.722Z,-2.65
2023-01-29T22:50:54.008Z,-2.69
2023-01-29T22:53:24.135Z,-2.74
2023-01-29T22:55:57.487Z,-2.79
2023-01-29T22:58:30.232Z,-2.81
2023-01-29T23:01:00.572Z,-2.84
2023-01-29T23:03:30.807Z,-2.87
2023-01-29T23:06:01.070Z,-2.86
2023-01-29T23:08:31.336Z,-2.89
2023-01-29T23:11:14.488Z,-2.91
2023-01-29T23:13:49.987Z,-2.97
2023-01-29T23:16:21.356Z,-2.95
2023-01-29T23:18:54.281Z,-2.93
2023-01-29T23:21:27.339Z,-2.93
2023-01-29T23:23:58.490Z,-2.95
2023-01-29T23:26:41.717Z,-2.97
2023-01-29T23:29:14.821Z,-2.96
2023-01-29T23:31:45.006Z,-2.99
2023-01-29T23:34:15.315Z,-2.96
2023-01-29T23:36:48.837Z,-3.00
2023-01-29T23:39:18.882Z,-2.99
2023-01-29T23:41:48.984Z,-3.00
2023-01-29T23:44:21.831Z,-3.00
2023-01-29T23:46:51.959Z,-2.97
2023-01-29T23:49:22.288Z,-3.00
2023-01-29T23:51:52.809Z,-2.94
2023-01-29T23:54:22.962Z,-2.99
2023-01-29T23:56:53.376Z,-3.03
2023-01-29T23:59:26.096Z,-2.90
